ěÝzenÝ letovÚho provozu ╚eskÚ republiky
Letiste: LKPJ Aktualizace: 30.05.2020 00:31:19  UTC
 METAR LKPJ 30.05. 00:30 ...
METAR LKPJ 300030Z AUTO 34006KT 9999 OVC081 11/03 Q1021=